createdAt,value
2022-09-16T00:04:50.246Z,2.17
2022-09-16T00:09:49.222Z,1.70
2022-09-16T00:14:48.596Z,2.03
2022-09-16T00:19:47.436Z,1.30
2022-09-16T00:24:50.109Z,1.70
2022-09-16T00:29:49.243Z,1.60
2022-09-16T00:34:48.102Z,2.40
2022-09-16T00:39:50.988Z,2.20
2022-09-16T00:44:59.453Z,1.52
2022-09-16T00:50:03.768Z,1.35
2022-09-16T00:55:09.865Z,1.80
2022-09-16T01:00:11.141Z,2.50
2022-09-16T01:05:13.703Z,1.83
2022-09-16T01:10:14.823Z,1.75
2022-09-16T01:15:15.243Z,2.03
2022-09-16T01:20:51.309Z,2.20
2022-09-16T01:26:10.121Z,1.90
2022-09-16T01:31:17.530Z,1.90
2022-09-16T01:36:29.437Z,2.05
2022-09-16T01:41:38.767Z,2.70
2022-09-16T01:46:44.611Z,2.58
2022-09-16T01:51:49.778Z,2.22
2022-09-16T01:56:59.114Z,1.52
2022-09-16T02:02:04.238Z,2.20
2022-09-16T02:07:08.337Z,1.88
2022-09-16T02:12:12.643Z,2.08
2022-09-16T02:17:16.369Z,2.00
2022-09-16T02:22:19.128Z,3.00
2022-09-16T02:27:21.417Z,2.25
2022-09-16T02:32:25.572Z,1.70
2022-09-16T02:37:31.277Z,1.58
2022-09-16T02:42:31.066Z,2.72
2022-09-16T02:47:38.118Z,2.08
2022-09-16T02:52:40.692Z,2.33
2022-09-16T02:57:39.589Z,2.45
2022-09-16T03:02:40.148Z,2.83
2022-09-16T03:07:40.678Z,1.90
2022-09-16T03:12:55.454Z,2.17
2022-09-16T03:18:18.561Z,2.00
2022-09-16T03:23:22.388Z,1.83
2022-09-16T03:28:37.927Z,1.90
2022-09-16T03:33:44.268Z,2.00
2022-09-16T03:38:44.410Z,2.33
2022-09-16T03:44:02.933Z,3.22
2022-09-16T03:49:04.681Z,1.95
2022-09-16T03:54:03.482Z,1.93
2022-09-16T03:59:02.357Z,1.77
2022-09-16T04:04:01.467Z,1.60
2022-09-16T04:09:04.559Z,2.97
2022-09-16T04:14:09.265Z,3.15
2022-09-16T04:19:08.501Z,2.20
2022-09-16T04:24:13.160Z,2.00
2022-09-16T04:29:12.995Z,2.65
2022-09-16T04:34:13.155Z,3.08
2022-09-16T04:39:13.736Z,2.45
2022-09-16T04:44:12.750Z,3.22
2022-09-16T04:49:13.139Z,2.45
2022-09-16T04:54:13.460Z,2.20
2022-09-16T04:59:12.296Z,3.22
2022-09-16T05:04:11.543Z,2.30
2022-09-16T05:09:13.687Z,3.00
2022-09-16T05:14:15.983Z,3.40
2022-09-16T05:19:16.327Z,2.55
2022-09-16T05:24:16.566Z,4.00
2022-09-16T05:29:18.707Z,2.90
2022-09-16T05:34:18.929Z,3.58
2022-09-16T05:39:24.123Z,3.30
2022-09-16T05:44:23.879Z,2.88
2022-09-16T05:49:23.830Z,3.13
2022-09-16T05:54:25.482Z,2.85
2022-09-16T06:04:23.520Z,2.53
2022-09-16T06:09:25.863Z,2.15
2022-09-16T06:14:25.196Z,2.60
2022-09-16T06:19:24.201Z,2.17
2022-09-16T06:24:24.503Z,1.92
2022-09-16T06:29:23.301Z,2.40
2022-09-16T06:34:22.069Z,1.77
2022-09-16T06:39:22.647Z,2.10
2022-09-16T06:44:23.411Z,2.03
2022-09-16T06:49:22.171Z,2.00
2022-09-16T06:54:20.981Z,1.73
2022-09-16T06:59:19.830Z,2.53
2022-09-16T07:04:20.151Z,1.73
2022-09-16T07:09:19.142Z,2.80
2022-09-16T07:14:17.937Z,1.80
2022-09-16T07:19:16.752Z,1.95
2022-09-16T07:24:17.022Z,1.60
2022-09-16T07:29:19.907Z,1.50
2022-09-16T07:34:18.891Z,1.15
2022-09-16T07:39:25.773Z,1.10
2022-09-16T07:44:24.989Z,0.80
2022-09-16T07:49:34.958Z,1.05
2022-09-16T07:54:35.404Z,0.98
2022-09-16T07:59:37.452Z,0.97
2022-09-16T08:04:45.358Z,0.70
2022-09-16T08:09:59.065Z,0.70
2022-09-16T08:15:02.895Z,0.90
2022-09-16T08:20:02.063Z,0.80
2022-09-16T08:25:03.395Z,0.50
2022-09-16T08:30:05.712Z,0.93
2022-09-16T08:35:05.656Z,0.70
2022-09-16T08:40:12.020Z,0.68
2022-09-16T08:45:21.871Z,0.45
2022-09-16T08:50:27.026Z,1.25
2022-09-16T08:55:31.768Z,0.50
2022-09-16T09:00:32.738Z,0.65
2022-09-16T09:05:48.504Z,0.50
2022-09-16T09:10:52.111Z,0.95
2022-09-16T09:15:57.476Z,1.13
2022-09-16T09:21:11.586Z,0.50
2022-09-16T09:26:21.132Z,0.40
2022-09-16T09:31:29.012Z,0.47
2022-09-16T09:36:58.919Z,1.33
2022-09-16T09:42:07.521Z,1.03
2022-09-16T09:47:15.038Z,1.08
2022-09-16T09:52:20.436Z,1.13
2022-09-16T09:57:28.610Z,1.30
2022-09-16T10:02:27.758Z,1.60
2022-09-16T10:07:28.760Z,2.30
2022-09-16T10:12:34.630Z,2.97
2022-09-16T10:17:34.803Z,1.45
2022-09-16T10:22:35.508Z,0.60
2022-09-16T10:27:37.600Z,1.25
2022-09-16T10:32:47.162Z,1.15
2022-09-16T10:37:55.692Z,0.70
2022-09-16T10:43:05.034Z,1.10
2022-09-16T10:48:10.706Z,0.70
2022-09-16T10:53:24.087Z,0.80
2022-09-16T10:58:24.595Z,1.25
2022-09-16T11:03:49.616Z,1.08
2022-09-16T11:09:01.576Z,1.30
2022-09-16T11:14:11.098Z,2.42
2022-09-16T11:19:16.449Z,1.55
2022-09-16T11:24:47.587Z,0.93
2022-09-16T11:30:03.124Z,1.15
2022-09-16T11:35:18.852Z,1.45
2022-09-16T11:40:31.132Z,0.85
2022-09-16T11:45:48.067Z,1.50
2022-09-16T11:50:58.005Z,0.93
2022-09-16T11:56:02.363Z,1.63
2022-09-16T12:01:12.033Z,1.95
2022-09-16T12:11:23.009Z,1.50
2022-09-16T12:16:31.999Z,1.23
2022-09-16T12:21:37.083Z,1.40
2022-09-16T12:26:41.656Z,1.70
2022-09-16T12:31:49.102Z,1.25
2022-09-16T12:36:54.905Z,1.20
2022-09-16T12:42:14.242Z,1.05
2022-09-16T12:47:30.018Z,1.80
2022-09-16T12:52:41.984Z,1.85
2022-09-16T12:57:53.830Z,1.20
2022-09-16T13:02:57.406Z,1.95
2022-09-16T13:07:59.107Z,1.13
2022-09-16T13:13:03.666Z,1.20
2022-09-16T13:18:27.219Z,1.48
2022-09-16T13:23:39.065Z,1.48
2022-09-16T13:28:39.726Z,1.55
2022-09-16T13:33:41.548Z,1.10
2022-09-16T13:38:43.018Z,2.15
2022-09-16T13:43:53.421Z,1.88
2022-09-16T13:49:01.328Z,1.63
2022-09-16T13:54:09.446Z,1.10
2022-09-16T13:59:31.292Z,1.70
2022-09-16T14:04:55.523Z,1.58
2022-09-16T14:10:02.796Z,1.90
2022-09-16T14:15:02.802Z,1.90
2022-09-16T14:20:05.015Z,1.83
2022-09-16T14:25:26.156Z,1.55
2022-09-16T14:30:26.051Z,1.92
2022-09-16T14:35:27.771Z,2.08
2022-09-16T14:40:28.601Z,2.17
2022-09-16T14:45:29.892Z,2.53
2022-09-16T14:50:33.489Z,2.33
2022-09-16T14:55:36.297Z,1.95
2022-09-16T15:00:42.996Z,1.73
2022-09-16T15:05:47.236Z,1.67
2022-09-16T15:10:55.241Z,2.90
2022-09-16T15:15:59.389Z,2.80
2022-09-16T15:21:07.490Z,2.85
2022-09-16T15:26:16.777Z,3.10
2022-09-16T15:31:39.056Z,3.08
2022-09-16T15:36:42.739Z,2.08
2022-09-16T15:41:44.062Z,2.47
2022-09-16T15:46:47.161Z,2.60
2022-09-16T15:51:49.678Z,2.10
2022-09-16T15:56:58.245Z,2.17
2022-09-16T16:02:01.041Z,2.30
2022-09-16T16:07:03.418Z,1.90
2022-09-16T16:12:04.122Z,1.88
2022-09-16T16:17:13.817Z,2.70
2022-09-16T16:22:16.124Z,2.47
2022-09-16T16:27:15.206Z,3.08
2022-09-16T16:32:15.848Z,2.67
2022-09-16T16:37:40.297Z,2.97
2022-09-16T16:42:36.584Z,2.70
2022-09-16T16:47:35.977Z,2.20
2022-09-16T16:52:36.393Z,2.35
2022-09-16T16:57:39.106Z,2.70
2022-09-16T17:02:43.842Z,2.28
2022-09-16T17:07:44.492Z,2.17
2022-09-16T17:12:43.363Z,2.90
2022-09-16T17:17:49.444Z,3.05
2022-09-16T17:22:53.717Z,3.00
2022-09-16T17:32:51.273Z,2.83
2022-09-16T17:37:50.233Z,2.72
2022-09-16T17:42:53.676Z,3.38
2022-09-16T17:47:58.097Z,2.05
2022-09-16T17:53:00.196Z,2.38
2022-09-16T17:58:00.513Z,3.20
2022-09-16T18:02:59.364Z,1.90
2022-09-16T18:07:58.183Z,2.92
2022-09-16T18:12:58.264Z,2.47
2022-09-16T18:17:58.600Z,2.67
2022-09-16T18:22:57.465Z,2.33
2022-09-16T18:27:58.492Z,2.55
2022-09-16T18:32:59.255Z,1.98
2022-09-16T18:38:00.406Z,2.33
2022-09-16T18:42:59.189Z,2.00
2022-09-16T18:47:59.371Z,1.98
2022-09-16T18:52:58.119Z,1.92
2022-09-16T18:57:57.024Z,2.45
2022-09-16T19:02:56.034Z,2.17
2022-09-16T19:07:57.175Z,2.63
2022-09-16T19:12:56.681Z,1.55
2022-09-16T19:17:56.342Z,1.92
2022-09-16T19:22:59.355Z,2.80
2022-09-16T19:27:58.233Z,2.45
2022-09-16T19:32:57.277Z,1.85
2022-09-16T19:37:57.559Z,2.45
2022-09-16T19:42:56.496Z,1.92
2022-09-16T19:47:55.408Z,2.65
2022-09-16T19:52:55.308Z,1.83
2022-09-16T19:57:55.474Z,2.30
2022-09-16T20:02:54.489Z,1.90
2022-09-16T20:07:53.327Z,2.17
2022-09-16T20:12:57.311Z,1.77
2022-09-16T20:17:59.808Z,1.75
2022-09-16T20:22:58.613Z,1.83
2022-09-16T20:27:57.421Z,2.17
2022-09-16T20:32:56.429Z,2.25
2022-09-16T20:37:56.859Z,1.52
2022-09-16T20:42:55.718Z,2.92
2022-09-16T20:47:54.575Z,2.28
2022-09-16T20:52:53.479Z,1.67
2022-09-16T20:57:53.672Z,1.25
2022-09-16T21:02:54.421Z,1.33
2022-09-16T21:07:53.172Z,1.43
2022-09-16T21:12:54.112Z,2.08
2022-09-16T21:17:52.879Z,1.60
2022-09-16T21:22:51.898Z,1.05
2022-09-16T21:27:50.689Z,2.00
2022-09-16T21:32:50.837Z,1.95
2022-09-16T21:37:49.740Z,1.25
2022-09-16T21:42:48.558Z,1.80
2022-09-16T21:47:47.359Z,2.13
2022-09-16T21:52:47.650Z,1.48
2022-09-16T21:57:48.470Z,1.40
2022-09-16T22:02:47.368Z,1.50
2022-09-16T22:07:47.651Z,1.65
2022-09-16T22:12:46.531Z,1.63
2022-09-16T22:17:48.848Z,1.40
2022-09-16T22:22:52.009Z,1.88
2022-09-16T22:27:51.287Z,1.70
2022-09-16T22:32:50.039Z,1.98
2022-09-16T22:37:49.674Z,1.80
2022-09-16T22:42:51.016Z,2.28
2022-09-16T22:47:49.893Z,1.73
2022-09-16T22:52:48.800Z,2.03
2022-09-16T22:57:47.568Z,1.55
2022-09-16T23:02:47.780Z,1.63
2022-09-16T23:07:47.553Z,1.40
2022-09-16T23:12:46.417Z,1.27
2022-09-16T23:17:45.474Z,1.35
2022-09-16T23:22:45.676Z,1.63
2022-09-16T23:27:44.578Z,1.20
2022-09-16T23:32:43.476Z,1.40
2022-09-16T23:37:42.285Z,1.70
2022-09-16T23:42:42.946Z,1.98
2022-09-16T23:47:41.724Z,1.45
2022-09-16T23:52:40.851Z,0.88
2022-09-16T23:57:39.714Z,1.63
